sensor_id;sensor_type;location;lat;lon;timestamp;P1;durP1;ratioP1;P2;durP2;ratioP2
22429;SDS011;11382;48.086;11.632;2024-01-06T00:01:26;12.27;;;7.57;;
22429;SDS011;11382;48.086;11.632;2024-01-06T00:03:54;9.45;;;6.25;;
22429;SDS011;11382;48.086;11.632;2024-01-06T00:06:23;9.50;;;6.68;;
22429;SDS011;11382;48.086;11.632;2024-01-06T00:08:51;10.20;;;7.03;;
22429;SDS011;11382;48.086;11.632;2024-01-06T00:11:22;9.35;;;6.47;;
22429;SDS011;11382;48.086;11.632;2024-01-06T00:13:50;12.02;;;7.25;;
22429;SDS011;11382;48.086;11.632;2024-01-06T00:16:18;16.83;;;8.70;;
22429;SDS011;11382;48.086;11.632;2024-01-06T00:18:47;14.57;;;7.95;;
22429;SDS011;11382;48.086;11.632;2024-01-06T00:21:15;15.45;;;9.75;;
22429;SDS011;11382;48.086;11.632;2024-01-06T00:23:43;14.48;;;9.32;;
22429;SDS011;11382;48.086;11.632;2024-01-06T00:26:11;15.98;;;9.13;;
22429;SDS011;11382;48.086;11.632;2024-01-06T00:28:40;16.27;;;9.10;;
22429;SDS011;11382;48.086;11.632;2024-01-06T00:31:08;12.80;;;8.23;;
22429;SDS011;11382;48.086;11.632;2024-01-06T00:33:37;12.02;;;8.50;;
22429;SDS011;11382;48.086;11.632;2024-01-06T00:36:06;11.65;;;7.65;;
22429;SDS011;11382;48.086;11.632;2024-01-06T00:38:35;10.65;;;6.35;;
22429;SDS011;11382;48.086;11.632;2024-01-06T00:41:03;9.85;;;6.60;;
22429;SDS011;11382;48.086;11.632;2024-01-06T00:43:31;9.68;;;6.25;;
22429;SDS011;11382;48.086;11.632;2024-01-06T00:46:00;7.95;;;5.70;;
22429;SDS011;11382;48.086;11.632;2024-01-06T00:48:29;6.60;;;5.00;;
22429;SDS011;11382;48.086;11.632;2024-01-06T00:50:57;7.45;;;5.00;;
22429;SDS011;11382;48.086;11.632;2024-01-06T00:53:25;7.63;;;4.28;;
22429;SDS011;11382;48.086;11.632;2024-01-06T00:55:53;7.10;;;5.10;;
22429;SDS011;11382;48.086;11.632;2024-01-06T00:58:21;6.00;;;3.70;;
22429;SDS011;11382;48.086;11.632;2024-01-06T01:00:49;4.60;;;3.60;;
22429;SDS011;11382;48.086;11.632;2024-01-06T01:03:18;5.47;;;3.50;;
22429;SDS011;11382;48.086;11.632;2024-01-06T01:05:47;5.18;;;3.33;;
22429;SDS011;11382;48.086;11.632;2024-01-06T01:08:15;5.53;;;3.60;;
22429;SDS011;11382;48.086;11.632;2024-01-06T01:10:43;7.22;;;3.75;;
22429;SDS011;11382;48.086;11.632;2024-01-06T01:13:11;4.95;;;3.28;;
22429;SDS011;11382;48.086;11.632;2024-01-06T01:15:39;4.97;;;3.80;;
22429;SDS011;11382;48.086;11.632;2024-01-06T01:18:07;4.93;;;3.70;;
22429;SDS011;11382;48.086;11.632;2024-01-06T01:20:36;4.10;;;2.65;;
22429;SDS011;11382;48.086;11.632;2024-01-06T01:23:04;3.63;;;2.60;;
22429;SDS011;11382;48.086;11.632;2024-01-06T01:25:32;4.35;;;2.88;;
22429;SDS011;11382;48.086;11.632;2024-01-06T01:28:00;3.33;;;2.53;;
22429;SDS011;11382;48.086;11.632;2024-01-06T01:30:28;3.58;;;2.40;;
22429;SDS011;11382;48.086;11.632;2024-01-06T01:32:59;4.10;;;3.10;;
22429;SDS011;11382;48.086;11.632;2024-01-06T01:35:27;4.13;;;3.03;;
22429;SDS011;11382;48.086;11.632;2024-01-06T01:37:56;4.78;;;3.50;;
22429;SDS011;11382;48.086;11.632;2024-01-06T01:40:24;5.03;;;2.53;;
22429;SDS011;11382;48.086;11.632;2024-01-06T01:42:52;3.00;;;2.20;;
22429;SDS011;11382;48.086;11.632;2024-01-06T01:45:20;3.53;;;2.53;;
22429;SDS011;11382;48.086;11.632;2024-01-06T01:47:48;4.50;;;2.53;;
22429;SDS011;11382;48.086;11.632;2024-01-06T01:50:17;3.33;;;2.60;;
22429;SDS011;11382;48.086;11.632;2024-01-06T01:52:46;4.80;;;2.72;;
22429;SDS011;11382;48.086;11.632;2024-01-06T01:55:16;3.75;;;2.53;;
22429;SDS011;11382;48.086;11.632;2024-01-06T01:57:44;3.92;;;2.78;;
22429;SDS011;11382;48.086;11.632;2024-01-06T02:00:12;5.35;;;3.17;;
22429;SDS011;11382;48.086;11.632;2024-01-06T02:02:41;5.10;;;3.70;;
22429;SDS011;11382;48.086;11.632;2024-01-06T02:05:09;4.10;;;3.00;;
22429;SDS011;11382;48.086;11.632;2024-01-06T02:07:37;6.68;;;3.70;;
22429;SDS011;11382;48.086;11.632;2024-01-06T02:10:06;4.28;;;2.85;;
22429;SDS011;11382;48.086;11.632;2024-01-06T02:12:36;4.95;;;3.33;;
22429;SDS011;11382;48.086;11.632;2024-01-06T02:15:04;6.07;;;3.40;;
22429;SDS011;11382;48.086;11.632;2024-01-06T02:17:33;3.28;;;2.67;;
22429;SDS011;11382;48.086;11.632;2024-01-06T02:20:01;4.20;;;3.22;;
22429;SDS011;11382;48.086;11.632;2024-01-06T02:22:30;3.45;;;2.92;;
22429;SDS011;11382;48.086;11.632;2024-01-06T02:24:58;5.00;;;3.20;;
22429;SDS011;11382;48.086;11.632;2024-01-06T02:27:26;3.85;;;2.80;;
22429;SDS011;11382;48.086;11.632;2024-01-06T02:29:54;4.45;;;3.10;;
22429;SDS011;11382;48.086;11.632;2024-01-06T02:32:22;6.18;;;4.28;;
22429;SDS011;11382;48.086;11.632;2024-01-06T02:34:50;4.70;;;3.35;;
22429;SDS011;11382;48.086;11.632;2024-01-06T02:37:18;5.70;;;4.00;;
22429;SDS011;11382;48.086;11.632;2024-01-06T02:39:47;5.03;;;3.38;;
22429;SDS011;11382;48.086;11.632;2024-01-06T02:42:15;5.53;;;3.72;;
22429;SDS011;11382;48.086;11.632;2024-01-06T02:44:44;5.10;;;3.53;;
22429;SDS011;11382;48.086;11.632;2024-01-06T02:47:12;5.55;;;3.83;;
22429;SDS011;11382;48.086;11.632;2024-01-06T02:49:40;6.90;;;3.92;;
22429;SDS011;11382;48.086;11.632;2024-01-06T02:52:08;3.88;;;2.65;;
22429;SDS011;11382;48.086;11.632;2024-01-06T02:54:36;3.53;;;2.78;;
22429;SDS011;11382;48.086;11.632;2024-01-06T02:57:05;4.32;;;2.38;;
22429;SDS011;11382;48.086;11.632;2024-01-06T02:59:33;3.05;;;2.20;;
22429;SDS011;11382;48.086;11.632;2024-01-06T03:02:01;4.50;;;2.45;;
22429;SDS011;11382;48.086;11.632;2024-01-06T03:04:29;2.95;;;1.77;;
22429;SDS011;11382;48.086;11.632;2024-01-06T03:06:57;3.35;;;1.80;;
22429;SDS011;11382;48.086;11.632;2024-01-06T03:09:26;2.58;;;1.73;;
22429;SDS011;11382;48.086;11.632;2024-01-06T03:11:54;2.08;;;1.50;;
22429;SDS011;11382;48.086;11.632;2024-01-06T03:14:23;3.63;;;2.00;;
22429;SDS011;11382;48.086;11.632;2024-01-06T03:16:51;2.75;;;1.83;;
22429;SDS011;11382;48.086;11.632;2024-01-06T03:19:19;4.10;;;1.90;;
22429;SDS011;11382;48.086;11.632;2024-01-06T03:21:52;2.85;;;1.70;;
22429;SDS011;11382;48.086;11.632;2024-01-06T03:24:21;2.65;;;1.92;;
22429;SDS011;11382;48.086;11.632;2024-01-06T03:26:50;2.67;;;1.80;;
22429;SDS011;11382;48.086;11.632;2024-01-06T03:29:18;3.60;;;1.73;;
22429;SDS011;11382;48.086;11.632;2024-01-06T03:31:47;3.22;;;1.98;;
22429;SDS011;11382;48.086;11.632;2024-01-06T03:34:15;2.38;;;1.80;;
22429;SDS011;11382;48.086;11.632;2024-01-06T03:36:43;3.40;;;2.30;;
22429;SDS011;11382;48.086;11.632;2024-01-06T03:39:11;1.77;;;1.42;;
22429;SDS011;11382;48.086;11.632;2024-01-06T03:41:40;2.55;;;1.73;;
22429;SDS011;11382;48.086;11.632;2024-01-06T03:44:08;4.65;;;2.05;;
22429;SDS011;11382;48.086;11.632;2024-01-06T03:46:36;1.73;;;1.45;;
22429;SDS011;11382;48.086;11.632;2024-01-06T03:49:06;2.00;;;1.50;;
22429;SDS011;11382;48.086;11.632;2024-01-06T03:51:34;2.72;;;1.73;;
22429;SDS011;11382;48.086;11.632;2024-01-06T03:54:02;2.53;;;1.48;;
22429;SDS011;11382;48.086;11.632;2024-01-06T03:56:30;1.63;;;1.33;;
22429;SDS011;11382;48.086;11.632;2024-01-06T03:58:58;1.70;;;1.58;;
22429;SDS011;11382;48.086;11.632;2024-01-06T04:01:26;2.13;;;1.58;;
22429;SDS011;11382;48.086;11.632;2024-01-06T04:03:54;2.67;;;1.58;;
22429;SDS011;11382;48.086;11.632;2024-01-06T04:06:24;2.03;;;1.50;;
22429;SDS011;11382;48.086;11.632;2024-01-06T04:08:52;2.05;;;1.30;;
22429;SDS011;11382;48.086;11.632;2024-01-06T04:11:21;1.73;;;1.33;;
22429;SDS011;11382;48.086;11.632;2024-01-06T04:13:49;1.90;;;1.20;;
22429;SDS011;11382;48.086;11.632;2024-01-06T04:16:17;1.63;;;1.13;;
22429;SDS011;11382;48.086;11.632;2024-01-06T04:18:45;1.00;;;0.80;;
22429;SDS011;11382;48.086;11.632;2024-01-06T04:21:13;1.45;;;1.08;;
22429;SDS011;11382;48.086;11.632;2024-01-06T04:23:43;0.60;;;0.57;;
22429;SDS011;11382;48.086;11.632;2024-01-06T04:26:10;0.73;;;0.50;;
22429;SDS011;11382;48.086;11.632;2024-01-06T04:28:39;1.35;;;0.70;;
22429;SDS011;11382;48.086;11.632;2024-01-06T04:31:07;0.82;;;0.68;;
22429;SDS011;11382;48.086;11.632;2024-01-06T04:33:37;0.80;;;0.50;;
22429;SDS011;11382;48.086;11.632;2024-01-06T04:36:07;0.75;;;0.60;;
22429;SDS011;11382;48.086;11.632;2024-01-06T04:38:35;0.90;;;0.50;;
22429;SDS011;11382;48.086;11.632;2024-01-06T04:41:04;1.48;;;0.68;;
22429;SDS011;11382;48.086;11.632;2024-01-06T04:43:32;1.33;;;0.73;;
22429;SDS011;11382;48.086;11.632;2024-01-06T04:46:00;1.65;;;0.70;;
22429;SDS011;11382;48.086;11.632;2024-01-06T04:48:28;1.15;;;0.50;;
22429;SDS011;11382;48.086;11.632;2024-01-06T04:50:56;0.70;;;0.60;;
22429;SDS011;11382;48.086;11.632;2024-01-06T04:53:24;1.80;;;0.65;;
22429;SDS011;11382;48.086;11.632;2024-01-06T04:55:52;0.40;;;0.40;;
22429;SDS011;11382;48.086;11.632;2024-01-06T04:58:22;1.70;;;0.75;;
22429;SDS011;11382;48.086;11.632;2024-01-06T05:00:50;0.77;;;0.77;;
22429;SDS011;11382;48.086;11.632;2024-01-06T05:03:18;0.55;;;0.55;;
22429;SDS011;11382;48.086;11.632;2024-01-06T05:05:47;0.80;;;0.55;;
22429;SDS011;11382;48.086;11.632;2024-01-06T05:08:15;0.75;;;0.40;;
22429;SDS011;11382;48.086;11.632;2024-01-06T05:10:43;0.30;;;0.30;;
22429;SDS011;11382;48.086;11.632;2024-01-06T05:13:15;0.52;;;0.40;;
22429;SDS011;11382;48.086;11.632;2024-01-06T05:15:45;0.35;;;0.30;;
22429;SDS011;11382;48.086;11.632;2024-01-06T05:18:13;1.23;;;0.60;;
22429;SDS011;11382;48.086;11.632;2024-01-06T05:20:41;0.50;;;0.40;;
22429;SDS011;11382;48.086;11.632;2024-01-06T05:23:09;0.63;;;0.40;;
22429;SDS011;11382;48.086;11.632;2024-01-06T05:25:37;0.93;;;0.47;;
22429;SDS011;11382;48.086;11.632;2024-01-06T05:28:05;0.73;;;0.38;;
22429;SDS011;11382;48.086;11.632;2024-01-06T05:30:33;0.40;;;0.40;;
22429;SDS011;11382;48.086;11.632;2024-01-06T05:33:03;0.52;;;0.43;;
22429;SDS011;11382;48.086;11.632;2024-01-06T05:35:32;0.43;;;0.43;;
22429;SDS011;11382;48.086;11.632;2024-01-06T05:38:00;0.90;;;0.55;;
22429;SDS011;11382;48.086;11.632;2024-01-06T05:40:28;0.43;;;0.30;;
22429;SDS011;11382;48.086;11.632;2024-01-06T05:42:56;0.50;;;0.50;;
22429;SDS011;11382;48.086;11.632;2024-01-06T05:45:24;0.43;;;0.38;;
22429;SDS011;11382;48.086;11.632;2024-01-06T05:47:56;0.50;;;0.50;;
22429;SDS011;11382;48.086;11.632;2024-01-06T05:50:26;1.02;;;0.63;;
22429;SDS011;11382;48.086;11.632;2024-01-06T05:52:54;0.70;;;0.70;;
22429;SDS011;11382;48.086;11.632;2024-01-06T05:55:22;0.30;;;0.30;;
22429;SDS011;11382;48.086;11.632;2024-01-06T05:57:50;1.17;;;0.50;;
22429;SDS011;11382;48.086;11.632;2024-01-06T06:00:18;1.35;;;0.70;;
22429;SDS011;11382;48.086;11.632;2024-01-06T06:02:47;0.50;;;0.47;;
22429;SDS011;11382;48.086;11.632;2024-01-06T06:05:15;0.65;;;0.52;;
22429;SDS011;11382;48.086;11.632;2024-01-06T06:07:44;1.58;;;0.57;;
22429;SDS011;11382;48.086;11.632;2024-01-06T06:10:12;0.68;;;0.57;;
22429;SDS011;11382;48.086;11.632;2024-01-06T06:12:42;0.68;;;0.40;;
22429;SDS011;11382;48.086;11.632;2024-01-06T06:15:10;0.50;;;0.50;;
22429;SDS011;11382;48.086;11.632;2024-01-06T06:17:38;2.45;;;0.82;;
22429;SDS011;11382;48.086;11.632;2024-01-06T06:20:07;0.60;;;0.60;;
22429;SDS011;11382;48.086;11.632;2024-01-06T06:22:35;0.50;;;0.50;;
22429;SDS011;11382;48.086;11.632;2024-01-06T06:25:05;1.20;;;0.80;;
22429;SDS011;11382;48.086;11.632;2024-01-06T06:27:34;1.83;;;0.80;;
22429;SDS011;11382;48.086;11.632;2024-01-06T06:30:03;1.05;;;0.90;;
22429;SDS011;11382;48.086;11.632;2024-01-06T06:32:32;1.73;;;1.20;;
22429;SDS011;11382;48.086;11.632;2024-01-06T06:35:00;1.73;;;1.63;;
22429;SDS011;11382;48.086;11.632;2024-01-06T06:37:29;1.85;;;1.50;;
22429;SDS011;11382;48.086;11.632;2024-01-06T06:39:57;1.88;;;1.60;;
22429;SDS011;11382;48.086;11.632;2024-01-06T06:42:27;1.60;;;1.50;;
22429;SDS011;11382;48.086;11.632;2024-01-06T06:44:54;3.38;;;1.88;;
22429;SDS011;11382;48.086;11.632;2024-01-06T06:47:22;3.28;;;1.67;;
22429;SDS011;11382;48.086;11.632;2024-01-06T06:49:51;2.67;;;1.63;;
22429;SDS011;11382;48.086;11.632;2024-01-06T06:52:19;2.13;;;1.80;;
22429;SDS011;11382;48.086;11.632;2024-01-06T06:54:47;2.20;;;1.88;;
22429;SDS011;11382;48.086;11.632;2024-01-06T06:57:16;4.03;;;2.03;;
22429;SDS011;11382;48.086;11.632;2024-01-06T06:59:45;5.82;;;4.63;;
22429;SDS011;11382;48.086;11.632;2024-01-06T07:02:13;3.45;;;2.22;;
22429;SDS011;11382;48.086;11.632;2024-01-06T07:04:41;3.28;;;2.25;;
22429;SDS011;11382;48.086;11.632;2024-01-06T07:07:09;2.90;;;2.10;;
22429;SDS011;11382;48.086;11.632;2024-01-06T07:09:37;2.95;;;2.08;;
22429;SDS011;11382;48.086;11.632;2024-01-06T07:12:06;2.28;;;1.48;;
22429;SDS011;11382;48.086;11.632;2024-01-06T07:14:34;1.73;;;1.38;;
22429;SDS011;11382;48.086;11.632;2024-01-06T07:17:03;2.45;;;1.70;;
22429;SDS011;11382;48.086;11.632;2024-01-06T07:19:31;2.70;;;1.85;;
22429;SDS011;11382;48.086;11.632;2024-01-06T07:22:00;1.95;;;1.60;;
22429;SDS011;11382;48.086;11.632;2024-01-06T07:24:32;3.08;;;1.85;;
22429;SDS011;11382;48.086;11.632;2024-01-06T07:27:00;2.83;;;1.88;;
22429;SDS011;11382;48.086;11.632;2024-01-06T07:29:29;2.13;;;1.85;;
22429;SDS011;11382;48.086;11.632;2024-01-06T07:31:57;2.17;;;1.70;;
22429;SDS011;11382;48.086;11.632;2024-01-06T07:34:26;2.53;;;2.20;;
22429;SDS011;11382;48.086;11.632;2024-01-06T07:36:55;2.55;;;2.20;;
22429;SDS011;11382;48.086;11.632;2024-01-06T07:39:24;3.53;;;1.73;;
22429;SDS011;11382;48.086;11.632;2024-01-06T07:41:52;3.03;;;1.77;;
22429;SDS011;11382;48.086;11.632;2024-01-06T07:44:20;2.55;;;1.70;;
22429;SDS011;11382;48.086;11.632;2024-01-06T07:46:51;1.92;;;1.73;;
22429;SDS011;11382;48.086;11.632;2024-01-06T07:49:19;1.98;;;1.60;;
22429;SDS011;11382;48.086;11.632;2024-01-06T07:51:49;5.35;;;2.20;;
22429;SDS011;11382;48.086;11.632;2024-01-06T07:54:17;1.60;;;1.50;;
22429;SDS011;11382;48.086;11.632;2024-01-06T07:56:45;4.45;;;2.25;;
22429;SDS011;11382;48.086;11.632;2024-01-06T07:59:13;3.35;;;2.08;;
22429;SDS011;11382;48.086;11.632;2024-01-06T08:01:41;2.85;;;1.85;;
22429;SDS011;11382;48.086;11.632;2024-01-06T08:04:10;4.90;;;1.90;;
22429;SDS011;11382;48.086;11.632;2024-01-06T08:06:38;4.85;;;2.42;;
22429;SDS011;11382;48.086;11.632;2024-01-06T08:09:07;3.53;;;2.40;;
22429;SDS011;11382;48.086;11.632;2024-01-06T08:11:36;2.47;;;2.00;;
22429;SDS011;11382;48.086;11.632;2024-01-06T08:14:04;2.95;;;1.75;;
22429;SDS011;11382;48.086;11.632;2024-01-06T08:16:32;1.98;;;1.52;;
22429;SDS011;11382;48.086;11.632;2024-01-06T08:19:00;2.97;;;2.00;;
22429;SDS011;11382;48.086;11.632;2024-01-06T08:21:29;4.95;;;2.13;;
22429;SDS011;11382;48.086;11.632;2024-01-06T08:23:57;1.85;;;1.50;;
22429;SDS011;11382;48.086;11.632;2024-01-06T08:26:26;2.92;;;1.58;;
22429;SDS011;11382;48.086;11.632;2024-01-06T08:28:55;1.75;;;1.40;;
22429;SDS011;11382;48.086;11.632;2024-01-06T08:31:23;3.42;;;1.75;;
22429;SDS011;11382;48.086;11.632;2024-01-06T08:33:51;3.22;;;2.13;;
22429;SDS011;11382;48.086;11.632;2024-01-06T08:36:20;2.67;;;2.00;;
22429;SDS011;11382;48.086;11.632;2024-01-06T08:38:48;2.25;;;1.85;;
22429;SDS011;11382;48.086;11.632;2024-01-06T08:41:16;2.45;;;1.90;;
22429;SDS011;11382;48.086;11.632;2024-01-06T08:43:45;4.00;;;2.10;;
22429;SDS011;11382;48.086;11.632;2024-01-06T08:46:13;2.65;;;1.80;;
22429;SDS011;11382;48.086;11.632;2024-01-06T08:48:41;3.05;;;1.88;;
22429;SDS011;11382;48.086;11.632;2024-01-06T08:51:10;3.58;;;2.28;;
22429;SDS011;11382;48.086;11.632;2024-01-06T08:53:38;4.85;;;2.25;;
22429;SDS011;11382;48.086;11.632;2024-01-06T08:56:06;3.88;;;2.75;;
22429;SDS011;11382;48.086;11.632;2024-01-06T08:58:34;4.13;;;2.70;;
22429;SDS011;11382;48.086;11.632;2024-01-06T09:01:03;3.85;;;2.60;;
22429;SDS011;11382;48.086;11.632;2024-01-06T09:03:31;7.13;;;2.80;;
22429;SDS011;11382;48.086;11.632;2024-01-06T09:05:59;5.00;;;2.95;;
22429;SDS011;11382;48.086;11.632;2024-01-06T09:08:28;3.30;;;2.53;;
22429;SDS011;11382;48.086;11.632;2024-01-06T09:10:55;5.18;;;2.70;;
22429;SDS011;11382;48.086;11.632;2024-01-06T09:13:25;4.80;;;2.70;;
22429;SDS011;11382;48.086;11.632;2024-01-06T09:15:53;3.67;;;2.47;;
22429;SDS011;11382;48.086;11.632;2024-01-06T09:18:25;4.05;;;2.50;;
22429;SDS011;11382;48.086;11.632;2024-01-06T09:20:53;4.30;;;2.50;;
22429;SDS011;11382;48.086;11.632;2024-01-06T09:23:22;5.53;;;2.72;;
22429;SDS011;11382;48.086;11.632;2024-01-06T09:25:50;4.97;;;2.50;;
22429;SDS011;11382;48.086;11.632;2024-01-06T09:28:19;5.47;;;3.13;;
22429;SDS011;11382;48.086;11.632;2024-01-06T09:30:48;5.80;;;3.00;;
22429;SDS011;11382;48.086;11.632;2024-01-06T09:33:19;5.47;;;3.40;;
22429;SDS011;11382;48.086;11.632;2024-01-06T09:35:51;7.13;;;2.90;;
22429;SDS011;11382;48.086;11.632;2024-01-06T09:38:19;4.50;;;2.88;;
22429;SDS011;11382;48.086;11.632;2024-01-06T09:40:47;6.80;;;3.03;;
22429;SDS011;11382;48.086;11.632;2024-01-06T09:43:17;6.22;;;2.55;;
22429;SDS011;11382;48.086;11.632;2024-01-06T09:45:48;3.50;;;2.40;;
22429;SDS011;11382;48.086;11.632;2024-01-06T09:48:25;5.03;;;2.53;;
22429;SDS011;11382;48.086;11.632;2024-01-06T09:50:59;3.75;;;2.30;;
22429;SDS011;11382;48.086;11.632;2024-01-06T09:53:33;3.55;;;2.20;;
22429;SDS011;11382;48.086;11.632;2024-01-06T09:56:03;4.65;;;2.42;;
22429;SDS011;11382;48.086;11.632;2024-01-06T09:58:33;2.38;;;1.80;;
22429;SDS011;11382;48.086;11.632;2024-01-06T10:01:03;3.05;;;2.10;;
22429;SDS011;11382;48.086;11.632;2024-01-06T10:03:32;5.15;;;2.40;;
22429;SDS011;11382;48.086;11.632;2024-01-06T10:06:03;4.90;;;2.17;;
22429;SDS011;11382;48.086;11.632;2024-01-06T10:08:32;3.33;;;2.35;;
22429;SDS011;11382;48.086;11.632;2024-01-06T10:11:01;6.10;;;2.03;;
22429;SDS011;11382;48.086;11.632;2024-01-06T10:13:29;2.83;;;2.28;;
22429;SDS011;11382;48.086;11.632;2024-01-06T10:15:57;5.63;;;2.08;;
22429;SDS011;11382;48.086;11.632;2024-01-06T10:18:25;4.28;;;2.22;;
22429;SDS011;11382;48.086;11.632;2024-01-06T10:20:56;5.03;;;2.35;;
22429;SDS011;11382;48.086;11.632;2024-01-06T10:23:27;4.68;;;2.58;;
22429;SDS011;11382;48.086;11.632;2024-01-06T10:25:55;5.05;;;2.30;;
22429;SDS011;11382;48.086;11.632;2024-01-06T10:28:28;7.57;;;2.55;;
22429;SDS011;11382;48.086;11.632;2024-01-06T10:30:56;5.00;;;2.75;;
22429;SDS011;11382;48.086;11.632;2024-01-06T10:33:26;6.40;;;2.85;;
22429;SDS011;11382;48.086;11.632;2024-01-06T10:35:54;5.63;;;2.30;;
22429;SDS011;11382;48.086;11.632;2024-01-06T10:38:22;3.22;;;2.70;;
22429;SDS011;11382;48.086;11.632;2024-01-06T10:40:57;4.43;;;2.70;;
22429;SDS011;11382;48.086;11.632;2024-01-06T10:43:26;7.47;;;3.28;;
22429;SDS011;11382;48.086;11.632;2024-01-06T10:45:55;8.18;;;2.78;;
22429;SDS011;11382;48.086;11.632;2024-01-06T10:48:25;8.50;;;2.97;;
22429;SDS011;11382;48.086;11.632;2024-01-06T10:50:53;4.25;;;2.92;;
22429;SDS011;11382;48.086;11.632;2024-01-06T10:53:22;5.72;;;3.22;;
22429;SDS011;11382;48.086;11.632;2024-01-06T10:55:52;4.28;;;3.10;;
22429;SDS011;11382;48.086;11.632;2024-01-06T10:58:23;6.18;;;3.53;;
22429;SDS011;11382;48.086;11.632;2024-01-06T11:00:52;5.80;;;3.13;;
22429;SDS011;11382;48.086;11.632;2024-01-06T11:03:22;9.65;;;3.45;;
22429;SDS011;11382;48.086;11.632;2024-01-06T11:05:51;5.68;;;2.95;;
22429;SDS011;11382;48.086;11.632;2024-01-06T11:08:19;3.63;;;2.53;;
22429;SDS011;11382;48.086;11.632;2024-01-06T11:10:50;5.53;;;3.28;;
22429;SDS011;11382;48.086;11.632;2024-01-06T11:13:21;5.38;;;3.20;;
22429;SDS011;11382;48.086;11.632;2024-01-06T11:15:51;6.18;;;3.17;;
22429;SDS011;11382;48.086;11.632;2024-01-06T11:18:30;5.60;;;3.05;;
22429;SDS011;11382;48.086;11.632;2024-01-06T11:21:16;6.85;;;3.50;;
22429;SDS011;11382;48.086;11.632;2024-01-06T11:23:45;5.00;;;2.83;;
22429;SDS011;11382;48.086;11.632;2024-01-06T11:26:14;7.65;;;3.30;;
22429;SDS011;11382;48.086;11.632;2024-01-06T11:28:43;7.72;;;3.58;;
22429;SDS011;11382;48.086;11.632;2024-01-06T11:31:13;6.93;;;3.40;;
22429;SDS011;11382;48.086;11.632;2024-01-06T11:33:42;6.40;;;3.50;;
22429;SDS011;11382;48.086;11.632;2024-01-06T11:36:11;4.75;;;3.00;;
22429;SDS011;11382;48.086;11.632;2024-01-06T11:38:41;5.57;;;3.72;;
22429;SDS011;11382;48.086;11.632;2024-01-06T11:41:44;5.47;;;3.40;;
22429;SDS011;11382;48.086;11.632;2024-01-06T11:44:17;7.05;;;3.45;;
22429;SDS011;11382;48.086;11.632;2024-01-06T11:46:47;10.88;;;3.67;;
22429;SDS011;11382;48.086;11.632;2024-01-06T11:49:16;7.13;;;3.30;;
22429;SDS011;11382;48.086;11.632;2024-01-06T11:51:46;7.82;;;3.88;;
22429;SDS011;11382;48.086;11.632;2024-01-06T11:54:14;7.50;;;3.28;;
22429;SDS011;11382;48.086;11.632;2024-01-06T11:56:43;8.60;;;4.65;;
22429;SDS011;11382;48.086;11.632;2024-01-06T11:59:11;10.38;;;4.00;;
22429;SDS011;11382;48.086;11.632;2024-01-06T12:01:39;7.05;;;4.25;;
22429;SDS011;11382;48.086;11.632;2024-01-06T12:04:08;6.88;;;4.03;;
22429;SDS011;11382;48.086;11.632;2024-01-06T12:06:41;9.98;;;4.68;;
22429;SDS011;11382;48.086;11.632;2024-01-06T12:09:10;8.90;;;4.45;;
22429;SDS011;11382;48.086;11.632;2024-01-06T12:11:41;7.93;;;4.63;;
22429;SDS011;11382;48.086;11.632;2024-01-06T12:14:11;13.40;;;5.68;;
22429;SDS011;11382;48.086;11.632;2024-01-06T12:16:39;10.00;;;4.38;;
22429;SDS011;11382;48.086;11.632;2024-01-06T12:19:08;7.28;;;4.15;;
22429;SDS011;11382;48.086;11.632;2024-01-06T12:21:37;10.63;;;5.00;;
22429;SDS011;11382;48.086;11.632;2024-01-06T12:24:12;7.47;;;4.40;;
22429;SDS011;11382;48.086;11.632;2024-01-06T12:26:43;9.45;;;5.22;;
22429;SDS011;11382;48.086;11.632;2024-01-06T12:29:12;8.13;;;4.75;;
22429;SDS011;11382;48.086;11.632;2024-01-06T12:31:40;11.25;;;4.78;;
22429;SDS011;11382;48.086;11.632;2024-01-06T12:34:11;7.13;;;4.97;;
22429;SDS011;11382;48.086;11.632;2024-01-06T12:36:40;10.40;;;4.97;;
22429;SDS011;11382;48.086;11.632;2024-01-06T12:39:10;8.38;;;4.60;;
22429;SDS011;11382;48.086;11.632;2024-01-06T12:41:40;10.75;;;3.85;;
22429;SDS011;11382;48.086;11.632;2024-01-06T12:44:08;10.55;;;3.90;;
22429;SDS011;11382;48.086;11.632;2024-01-06T12:46:37;9.32;;;4.68;;
22429;SDS011;11382;48.086;11.632;2024-01-06T12:49:05;7.57;;;4.78;;
22429;SDS011;11382;48.086;11.632;2024-01-06T12:51:34;8.57;;;4.28;;
22429;SDS011;11382;48.086;11.632;2024-01-06T12:54:02;8.25;;;4.82;;
22429;SDS011;11382;48.086;11.632;2024-01-06T12:56:31;7.20;;;4.60;;
22429;SDS011;11382;48.086;11.632;2024-01-06T12:59:00;7.82;;;4.43;;
22429;SDS011;11382;48.086;11.632;2024-01-06T13:01:29;9.18;;;4.20;;
22429;SDS011;11382;48.086;11.632;2024-01-06T13:03:57;5.07;;;3.90;;
22429;SDS011;11382;48.086;11.632;2024-01-06T13:06:27;7.22;;;3.35;;
22429;SDS011;11382;48.086;11.632;2024-01-06T13:08:57;7.35;;;3.72;;
22429;SDS011;11382;48.086;11.632;2024-01-06T13:11:25;8.65;;;3.67;;
22429;SDS011;11382;48.086;11.632;2024-01-06T13:13:54;6.80;;;3.97;;
22429;SDS011;11382;48.086;11.632;2024-01-06T13:16:22;5.18;;;2.85;;
22429;SDS011;11382;48.086;11.632;2024-01-06T13:18:50;8.20;;;3.78;;
22429;SDS011;11382;48.086;11.632;2024-01-06T13:21:21;4.80;;;3.13;;
22429;SDS011;11382;48.086;11.632;2024-01-06T13:23:50;8.05;;;4.43;;
22429;SDS011;11382;48.086;11.632;2024-01-06T13:26:20;6.53;;;4.18;;
22429;SDS011;11382;48.086;11.632;2024-01-06T13:28:48;9.43;;;3.88;;
22429;SDS011;11382;48.086;11.632;2024-01-06T13:31:16;7.78;;;4.55;;
22429;SDS011;11382;48.086;11.632;2024-01-06T13:33:45;8.10;;;4.40;;
22429;SDS011;11382;48.086;11.632;2024-01-06T13:36:13;9.30;;;4.63;;
22429;SDS011;11382;48.086;11.632;2024-01-06T13:38:44;12.57;;;4.55;;
22429;SDS011;11382;48.086;11.632;2024-01-06T13:41:12;5.18;;;3.95;;
22429;SDS011;11382;48.086;11.632;2024-01-06T13:43:41;8.82;;;3.80;;
22429;SDS011;11382;48.086;11.632;2024-01-06T13:46:10;7.78;;;4.10;;
22429;SDS011;11382;48.086;11.632;2024-01-06T13:48:40;7.40;;;4.20;;
22429;SDS011;11382;48.086;11.632;2024-01-06T13:51:08;6.40;;;3.95;;
22429;SDS011;11382;48.086;11.632;2024-01-06T13:53:36;7.72;;;4.28;;
22429;SDS011;11382;48.086;11.632;2024-01-06T13:56:05;7.00;;;4.15;;
22429;SDS011;11382;48.086;11.632;2024-01-06T13:58:33;6.60;;;4.07;;
22429;SDS011;11382;48.086;11.632;2024-01-06T14:01:04;8.00;;;3.95;;
22429;SDS011;11382;48.086;11.632;2024-01-06T14:03:35;7.05;;;4.32;;
22429;SDS011;11382;48.086;11.632;2024-01-06T14:06:03;5.95;;;3.78;;
22429;SDS011;11382;48.086;11.632;2024-01-06T14:08:32;8.43;;;4.13;;
22429;SDS011;11382;48.086;11.632;2024-01-06T14:11:00;8.73;;;4.25;;
22429;SDS011;11382;48.086;11.632;2024-01-06T14:13:28;10.45;;;4.80;;
22429;SDS011;11382;48.086;11.632;2024-01-06T14:15:59;11.80;;;4.30;;
22429;SDS011;11382;48.086;11.632;2024-01-06T14:18:29;10.57;;;4.50;;
22429;SDS011;11382;48.086;11.632;2024-01-06T14:20:57;7.43;;;4.20;;
22429;SDS011;11382;48.086;11.632;2024-01-06T14:23:25;9.02;;;4.32;;
22429;SDS011;11382;48.086;11.632;2024-01-06T14:25:56;8.60;;;4.85;;
22429;SDS011;11382;48.086;11.632;2024-01-06T14:28:24;6.18;;;4.53;;
22429;SDS011;11382;48.086;11.632;2024-01-06T14:30:52;7.05;;;4.60;;
22429;SDS011;11382;48.086;11.632;2024-01-06T14:33:20;8.93;;;4.35;;
22429;SDS011;11382;48.086;11.632;2024-01-06T14:35:50;6.18;;;4.18;;
22429;SDS011;11382;48.086;11.632;2024-01-06T14:38:18;7.68;;;4.10;;
22429;SDS011;11382;48.086;11.632;2024-01-06T14:40:46;13.07;;;4.93;;
22429;SDS011;11382;48.086;11.632;2024-01-06T14:43:14;7.10;;;4.63;;